Time;durP1;ratioP1;P1;durP2;ratioP2;P2;SDS_P1;SDS_P2;PMS_P1;PMS_P2;Temp;Humidity;BMP_temperature;BMP_pressure;BME280_temperature;BME280_humidity;BME280_pressure;Samples;Min_cycle;Max_cycle;Signal;HPM_P1;HPM_P2
2024/01/09 00:00:38;;;;;;;14.30;7.20;;;;;;;1.22;100.00;99856.09;10290378;28;20039;-72
2024/01/09 00:05:39;;;;;;;10.95;6.50;;;;;;;1.22;100.00;99858.72;10290509;28;20051;-71
2024/01/09 00:10:39;;;;;;;9.90;6.60;;;;;;;1.23;100.00;99851.72;10296982;28;20093;-72
2024/01/09 00:15:40;;;;;;;12.55;6.07;;;;;;;1.20;100.00;99834.47;10297714;28;20038;-71
2024/01/09 00:20:41;;;;;;;7.63;5.40;;;;;;;1.28;100.00;99816.34;10297805;28;20102;-72
2024/01/09 00:25:42;;;;;;;8.73;5.18;;;;;;;1.33;100.00;99805.53;10298686;28;20054;-71
2024/01/09 00:30:42;;;;;;;9.23;5.40;;;;;;;1.25;100.00;99779.97;10297275;28;20038;-71
2024/01/09 00:35:43;;;;;;;14.02;5.50;;;;;;;1.26;100.00;99768.56;10297015;28;20043;-72
2024/01/09 00:40:45;;;;;;;13.75;7.10;;;;;;;1.32;100.00;99783.78;10297215;28;20117;-72
2024/01/09 00:45:45;;;;;;;11.48;6.10;;;;;;;1.14;100.00;99730.31;10297061;28;20045;-72
2024/01/09 00:50:46;;;;;;;18.40;7.38;;;;;;;1.31;100.00;99763.78;10297021;28;20076;-71
2024/01/09 00:55:47;;;;;;;11.85;6.28;;;;;;;1.47;100.00;99793.97;10297098;28;20594;-72
2024/01/09 01:00:48;;;;;;;25.85;7.85;;;;;;;1.35;100.00;99765.22;10296895;28;20558;-73
2024/01/09 01:05:48;;;;;;;21.00;7.13;;;;;;;1.34;100.00;99726.91;10297249;28;20134;-72
2024/01/09 01:10:49;;;;;;;28.60;8.20;;;;;;;1.52;100.00;99742.06;10295811;28;20046;-72
2024/01/09 01:15:50;;;;;;;25.85;8.25;;;;;;;1.25;100.00;99682.34;10296250;28;20038;-72
2024/01/09 01:20:50;;;;;;;19.85;8.23;;;;;;;1.56;100.00;99741.72;10295938;28;20043;-72
2024/01/09 01:25:51;;;;;;;16.17;8.23;;;;;;;1.60;100.00;99750.97;10295901;28;20047;-74
2024/01/09 01:30:52;;;;;;;15.65;7.43;;;;;;;1.70;100.00;99753.66;10295122;28;20396;-72
2024/01/09 01:35:53;;;;;;;16.30;7.82;;;;;;;1.42;100.00;99691.44;10295416;28;20153;-73
2024/01/09 01:40:54;;;;;;;13.60;7.40;;;;;;;1.77;100.00;99723.41;10288992;28;20055;-72
2024/01/09 01:45:54;;;;;;;19.05;8.45;;;;;;;1.83;100.00;99714.22;10293693;28;20105;-73
2024/01/09 01:50:56;;;;;;;16.08;8.13;;;;;;;1.60;100.00;99650.66;10294982;28;20046;-73
2024/01/09 01:55:57;;;;;;;15.60;7.63;;;;;;;1.89;100.00;99699.78;10295146;28;20078;-73
2024/01/09 02:01:00;;;;;;;16.65;7.55;;;;;;;1.78;100.00;99656.97;10294630;28;20042;-73
2024/01/09 02:06:01;;;;;;;14.75;6.88;;;;;;;1.60;100.00;99646.25;10293924;28;20499;-73
2024/01/09 02:11:02;;;;;;;14.27;7.93;;;;;;;1.97;100.00;99700.78;10294092;28;20039;-73
2024/01/09 02:16:03;;;;;;;15.32;7.60;;;;;;;1.96;100.00;99712.22;10292231;28;20055;-73
2024/01/09 02:21:04;;;;;;;13.63;7.32;;;;;;;1.66;100.00;99678.94;10292478;28;20084;-73
2024/01/09 02:26:06;;;;;;;12.77;7.50;;;;;;;1.65;100.00;99671.22;10291687;28;20061;-73
2024/01/09 02:31:07;;;;;;;12.82;7.47;;;;;;;1.67;100.00;99664.88;10290030;28;20085;-74
2024/01/09 02:36:07;;;;;;;12.65;7.50;;;;;;;2.21;100.00;99760.75;10288662;28;20073;-73
2024/01/09 02:41:08;;;;;;;11.85;6.90;;;;;;;2.21;100.00;99752.06;10292076;28;20477;-73
2024/01/09 02:46:09;;;;;;;12.30;7.15;;;;;;;1.88;100.00;99705.97;10292772;28;20050;-73
2024/01/09 02:51:10;;;;;;;12.90;7.45;;;;;;;2.04;100.00;99750.88;10292929;28;20038;-73
2024/01/09 02:56:11;;;;;;;13.02;6.38;;;;;;;1.98;100.00;99735.69;10292179;28;20074;-72
2024/01/09 03:01:11;;;;;;;11.20;7.00;;;;;;;1.95;100.00;99741.19;10292263;28;20098;-72
2024/01/09 03:06:12;;;;;;;12.98;6.82;;;;;;;2.00;100.00;99749.47;10292221;28;20054;-72
2024/01/09 03:11:13;;;;;;;14.68;7.28;;;;;;;1.87;100.00;99712.16;10291990;28;20039;-72
2024/01/09 03:16:14;;;;;;;11.27;6.88;;;;;;;1.95;100.00;99717.59;10292411;28;20093;-72
2024/01/09 03:21:16;;;;;;;14.02;7.13;;;;;;;2.27;100.00;99783.88;10287776;28;20097;-73
2024/01/09 03:26:17;;;;;;;13.93;7.22;;;;;;;2.28;100.00;99775.03;10285202;28;20138;-72
2024/01/09 03:31:22;;;;;;;14.90;7.15;;;;;;;2.17;100.00;99769.03;10286052;28;20042;-73
2024/01/09 03:36:23;;;;;;;15.55;7.43;;;;;;;1.85;100.00;99714.91;10285953;28;20121;-72
2024/01/09 03:41:24;;;;;;;13.43;7.40;;;;;;;1.96;100.00;99690.44;10276795;28;20055;-74
2024/01/09 03:46:24;;;;;;;12.85;7.72;;;;;;;2.26;100.00;99736.81;10296394;28;20047;-72
2024/01/09 03:51:25;;;;;;;11.63;7.40;;;;;;;2.27;100.00;99741.94;10299154;28;20085;-70
2024/01/09 03:56:26;;;;;;;18.38;10.82;;;;;;;2.00;100.00;99676.13;10299430;28;20050;-72
2024/01/09 04:01:26;;;;;;;16.05;8.38;;;;;;;2.34;100.00;99705.53;10277705;28;20043;-72
2024/01/09 04:06:27;;;;;;;19.20;8.18;;;;;;;2.22;100.00;99694.31;10258340;28;20043;-69
2024/01/09 04:11:28;;;;;;;15.68;7.50;;;;;;;1.68;100.00;99592.44;10271064;28;20053;-72
2024/01/09 04:16:29;;;;;;;14.77;7.40;;;;;;;2.07;100.00;99666.78;10298051;28;20061;-72
2024/01/09 04:21:29;;;;;;;15.20;8.35;;;;;;;2.05;100.00;99660.84;10297430;28;20537;-73
2024/01/09 04:26:30;;;;;;;23.60;11.20;;;;;;;2.15;100.00;99677.44;10298130;28;20046;-72
2024/01/09 04:31:31;;;;;;;20.17;11.77;;;;;;;2.26;100.00;99687.00;10297959;28;20479;-73
2024/01/09 04:36:31;;;;;;;18.67;10.30;;;;;;;1.97;100.00;99630.03;10287205;28;20051;-71
2024/01/09 04:41:32;;;;;;;21.83;9.05;;;;;;;1.99;100.00;99641.22;10257520;28;20400;-71
2024/01/09 04:46:33;;;;;;;18.33;9.93;;;;;;;2.24;100.00;99671.44;10271546;28;20491;-71
2024/01/09 04:51:34;;;;;;;19.65;10.02;;;;;;;2.38;100.00;99695.63;10296489;28;20518;-71
2024/01/09 04:56:34;;;;;;;23.33;8.85;;;;;;;2.33;100.00;99682.06;10295967;28;20039;-72
2024/01/09 05:01:35;;;;;;;13.63;7.82;;;;;;;2.39;100.00;99699.88;10296700;28;20051;-72
2024/01/09 05:06:36;;;;;;;12.32;7.20;;;;;;;2.39;100.00;99685.00;10295972;28;20053;-72
2024/01/09 05:11:36;;;;;;;13.52;7.32;;;;;;;2.18;100.00;99658.00;10295937;28;20042;-72
2024/01/09 05:16:37;;;;;;;16.00;6.60;;;;;;;2.36;100.00;99679.19;10295811;28;20121;-72
2024/01/09 05:21:38;;;;;;;12.70;7.30;;;;;;;2.24;100.00;99642.59;10295734;28;20042;-74
2024/01/09 05:26:38;;;;;;;11.45;7.00;;;;;;;2.72;100.00;99714.50;10296469;28;20070;-73
2024/01/09 05:31:45;;;;;;;11.40;7.30;;;;;;;2.68;100.00;99716.56;10295112;28;20041;-73
2024/01/09 05:36:46;;;;;;;9.75;6.32;;;;;;;2.60;100.00;99719.00;10295568;28;20042;-73
2024/01/09 05:41:47;;;;;;;10.20;6.78;;;;;;;2.68;100.00;99740.16;10294603;28;20058;-73
2024/01/09 05:46:49;;;;;;;12.35;6.82;;;;;;;2.66;100.00;99736.00;10295581;28;20082;-73
2024/01/09 05:51:50;;;;;;;11.88;6.93;;;;;;;2.66;100.00;99722.91;10294871;28;20035;-73
2024/01/09 05:56:51;;;;;;;11.07;7.32;;;;;;;2.71;100.00;99707.59;10294111;28;20042;-73
2024/01/09 06:01:52;;;;;;;15.85;7.32;;;;;;;2.77;100.00;99704.44;10294655;28;20038;-72
2024/01/09 06:06:52;;;;;;;13.80;6.93;;;;;;;2.89;100.00;99718.28;10292996;28;20046;-74
2024/01/09 06:11:53;;;;;;;11.82;6.88;;;;;;;2.82;100.00;99668.16;10294258;28;20062;-73
2024/01/09 06:16:54;;;;;;;12.60;7.25;;;;;;;3.12;100.00;99675.13;10293338;28;20042;-73
2024/01/09 06:21:55;;;;;;;16.17;7.88;;;;;;;3.07;100.00;99618.75;10293252;28;20072;-72
2024/01/09 06:26:56;;;;;;;12.20;6.90;;;;;;;3.08;100.00;99623.88;10293000;28;20135;-72
2024/01/09 06:31:56;;;;;;;13.55;7.97;;;;;;;3.51;100.00;99675.13;10292860;28;20043;-72
2024/01/09 06:36:57;;;;;;;13.30;7.97;;;;;;;3.39;100.00;99668.38;10293167;28;20035;-72
2024/01/09 06:41:58;;;;;;;12.18;8.20;;;;;;;3.49;100.00;99684.94;10292861;28;20057;-73
2024/01/09 06:46:59;;;;;;;15.75;8.25;;;;;;;3.47;100.00;99673.75;10292189;28;20038;-73
2024/01/09 06:52:00;;;;;;;16.40;7.97;;;;;;;3.15;100.00;99621.53;10292840;28;20082;-75
2024/01/09 06:57:00;;;;;;;12.18;8.23;;;;;;;3.13;100.00;99628.69;10292504;28;20043;-73
2024/01/09 07:02:01;;;;;;;12.30;8.50;;;;;;;3.19;100.00;99643.91;10292367;28;20381;-73
2024/01/09 07:07:02;;;;;;;14.43;8.32;;;;;;;3.33;100.00;99634.78;10292282;28;20042;-73
2024/01/09 07:12:03;;;;;;;11.30;7.80;;;;;;;3.98;100.00;99682.25;10292249;28;20046;-74
2024/01/09 07:17:04;;;;;;;16.55;7.93;;;;;;;4.29;100.00;99685.50;10291188;28;20051;-73
2024/01/09 07:22:05;;;;;;;11.93;7.90;;;;;;;4.43;100.00;99645.59;10291327;28;20038;-74
2024/01/09 07:27:05;;;;;;;10.35;7.75;;;;;;;5.33;100.00;99696.56;10291188;28;20051;-74
2024/01/09 07:32:06;;;;;;;9.45;6.90;;;;;;;5.10;100.00;99658.47;10291337;28;20134;-74
2024/01/09 07:37:07;;;;;;;9.55;7.35;;;;;;;5.76;100.00;99733.66;10290802;28;20549;-73
2024/01/09 07:42:08;;;;;;;10.40;7.65;;;;;;;5.71;100.00;99684.88;10290631;28;20058;-72
2024/01/09 07:47:11;;;;;;;16.35;7.60;;;;;;;5.96;100.00;99695.63;10290759;28;20050;-74
2024/01/09 07:52:11;;;;;;;9.07;6.80;;;;;;;6.18;100.00;99739.94;10291428;28;20070;-74
2024/01/09 07:57:12;;;;;;;9.52;6.25;;;;;;;6.09;100.00;99727.69;10291145;28;20093;-72
2024/01/09 08:02:13;;;;;;;10.13;5.90;;;;;;;6.07;100.00;99705.09;10291079;28;20043;-73
2024/01/09 08:07:13;;;;;;;6.28;4.20;;;;;;;6.48;100.00;99780.03;10290963;28;20051;-72
2024/01/09 08:12:14;;;;;;;1.63;1.00;;;;;;;6.49;100.00;99784.34;10291004;28;20066;-73
2024/01/09 08:17:15;;;;;;;1.77;0.90;;;;;;;6.06;100.00;99750.91;10291036;28;20039;-73
2024/01/09 08:22:18;;;;;;;2.13;0.70;;;;;;;5.68;100.00;99768.66;10290727;28;20054;-74
2024/01/09 08:27:19;;;;;;;0.60;0.30;;;;;;;5.23;100.00;99811.66;10290588;28;20121;-72
2024/01/09 08:32:19;;;;;;;0.60;0.40;;;;;;;4.32;100.00;99785.94;10297546;28;20047;-74
2024/01/09 08:37:20;;;;;;;2.97;1.42;;;;;;;3.63;100.00;99729.16;10297944;28;20045;-73
2024/01/09 08:42:21;;;;;;;2.70;0.80;;;;;;;3.72;100.00;99792.34;10297487;28;20058;-73
2024/01/09 08:47:22;;;;;;;2.15;1.45;;;;;;;3.26;100.00;99780.66;10297357;28;20058;-74
2024/01/09 08:52:25;;;;;;;2.65;1.80;;;;;;;3.40;100.00;99878.25;10296692;28;20039;-74
2024/01/09 08:57:26;;;;;;;2.90;2.10;;;;;;;3.11;100.00;99877.31;10296631;28;20090;-74
2024/01/09 09:02:27;;;;;;;2.88;2.30;;;;;;;2.88;100.00;99874.06;10297273;28;20042;-74
2024/01/09 09:07:28;;;;;;;3.67;2.60;;;;;;;2.29;100.00;99816.00;10296613;28;20097;-74
2024/01/09 09:12:28;;;;;;;6.03;3.95;;;;;;;2.37;100.00;99861.72;10296665;28;20058;-74
2024/01/09 09:17:30;;;;;;;3.28;2.17;;;;;;;2.26;100.00;99913.22;10296187;28;20045;-74
2024/01/09 09:22:33;;;;;;;3.33;2.20;;;;;;;1.84;100.00;99867.78;10296571;28;20046;-74
2024/01/09 09:27:34;;;;;;;3.85;2.78;;;;;;;1.59;100.00;99882.00;10295319;28;20038;-74
2024/01/09 09:32:36;;;;;;;4.57;2.42;;;;;;;1.81;100.00;99939.56;10295573;28;20104;-74
2024/01/09 09:37:36;;;;;;;5.47;3.38;;;;;;;1.16;100.00;99847.91;10295510;28;20042;-73
2024/01/09 09:42:38;;;;;;;3.95;2.92;;;;;;;1.61;100.00;99948.16;10294663;28;20082;-73
2024/01/09 09:47:40;;;;;;;4.28;2.90;;;;;;;1.50;100.00;99956.03;10295118;28;20054;-73
2024/01/09 09:52:42;;;;;;;5.10;3.42;;;;;;;1.42;100.00;99958.41;10295493;28;20046;-74
2024/01/09 09:57:43;;;;;;;5.82;3.35;;;;;;;1.18;100.00;99953.28;10294137;28;20490;-74
2024/01/09 10:02:49;;;;;;;4.35;2.25;;;;;;;1.02;100.00;99982.38;10293971;28;20070;-73
2024/01/09 10:07:53;;;;;;;5.68;3.60;;;;;;;0.52;100.00;99927.69;10294709;28;20129;-75
2024/01/09 10:12:57;;;;;;;4.47;2.67;;;;;;;0.55;100.00;99945.75;10294302;28;20388;-75
2024/01/09 10:18:01;;;;;;;6.18;3.35;;;;;;;0.52;100.00;99951.22;10294024;28;20124;-75
2024/01/09 10:23:02;;;;;;;6.60;3.88;;;;;;;0.63;100.00;100023.63;10293320;28;20208;-74
2024/01/09 10:28:08;;;;;;;5.43;3.13;;;;;;;0.35;100.00;100046.50;10293608;28;20046;-75
2024/01/09 10:33:11;;;;;;;7.25;3.78;;;;;;;-0.17;100.00;100000.59;10293035;28;20419;-75
2024/01/09 10:38:12;;;;;;;5.13;2.80;;;;;;;-0.14;100.00;100089.16;10293602;28;20483;-75
2024/01/09 10:43:17;;;;;;;5.53;2.78;;;;;;;-0.34;100.00;100098.34;10293818;28;20063;-74
2024/01/09 10:48:20;;;;;;;5.10;2.95;;;;;;;-0.82;100.00;100065.94;10292855;28;20047;-74
2024/01/09 10:53:26;;;;;;;5.53;2.85;;;;;;;-1.46;99.58;100011.91;10291808;28;20043;-73
2024/01/09 10:58:28;;;;;;;4.53;2.42;;;;;;;-0.96;99.45;100129.44;10291901;28;20059;-74
2024/01/09 11:03:29;;;;;;;5.93;3.20;;;;;;;-1.02;99.10;100155.91;10291966;28;20522;-75
2024/01/09 11:08:35;;;;;;;5.60;3.10;;;;;;;-1.12;98.36;100173.91;10292106;28;20074;-75
2024/01/09 11:13:41;;;;;;;7.50;2.90;;;;;;;-1.85;97.32;100083.00;10292038;28;20042;-77
2024/01/09 11:18:43;;;;;;;5.03;2.70;;;;;;;-1.22;98.28;100222.34;10291929;28;20546;-74
2024/01/09 11:23:44;;;;;;;5.28;2.80;;;;;;;-1.33;98.10;100233.44;10291898;28;20043;-74
2024/01/09 11:28:48;;;;;;;4.53;2.65;;;;;;;-1.44;98.72;100260.13;10291382;28;20411;-76
2024/01/09 11:33:49;;;;;;;5.03;2.45;;;;;;;-1.75;97.33;100262.94;10291611;28;20450;-76
2024/01/09 11:38:54;;;;;;;3.85;2.10;;;;;;;-1.93;97.10;100281.31;10291549;28;20101;-75
2024/01/09 11:43:58;;;;;;;4.63;2.47;;;;;;;-1.88;97.05;100302.72;10291880;28;20059;-74
2024/01/09 11:49:00;;;;;;;4.72;2.42;;;;;;;-2.03;97.13;100308.81;10290699;28;20046;-74
2024/01/09 11:54:02;;;;;;;6.10;3.03;;;;;;;-2.12;98.04;100348.38;10291166;28;20174;-74
2024/01/09 11:59:03;;;;;;;4.10;1.92;;;;;;;-2.87;98.57;100283.19;10291208;28;20043;-74
2024/01/09 12:04:04;;;;;;;4.07;2.08;;;;;;;-2.59;97.87;100409.06;10292663;28;20101;-73
2024/01/09 12:09:05;;;;;;;5.75;1.83;;;;;;;-2.87;97.79;100436.53;10298819;28;20197;-73
2024/01/09 12:14:07;;;;;;;3.38;1.90;;;;;;;-3.15;98.40;100457.06;10297898;28;20152;-73
2024/01/09 12:19:07;;;;;;;5.18;3.03;;;;;;;-3.14;100.00;100467.41;10296213;28;20086;-73
2024/01/09 12:24:09;;;;;;;7.20;2.90;;;;;;;-3.15;100.00;100491.69;10295975;28;20074;-72
2024/01/09 12:29:10;;;;;;;5.22;2.42;;;;;;;-3.36;100.00;100516.97;10295835;28;20534;-72
2024/01/09 12:34:11;;;;;;;9.70;3.65;;;;;;;-3.65;100.00;100526.16;10281705;28;20521;-74
2024/01/09 12:39:16;;;;;;;4.68;1.60;;;;;;;-3.69;100.00;100545.41;10281986;28;20058;-72
2024/01/09 12:44:17;;;;;;;9.38;2.97;;;;;;;-4.36;100.00;100515.63;10279938;28;20090;-74
2024/01/09 12:49:18;;;;;;;9.55;3.70;;;;;;;-4.26;100.00;100566.16;10292192;28;20047;-71
2024/01/09 12:54:18;;;;;;;5.25;3.25;;;;;;;-4.47;100.00;100578.31;10289609;28;20591;-72
2024/01/09 12:59:22;;;;;;;4.53;2.35;;;;;;;-4.34;100.00;100611.50;10293953;28;20039;-74
2024/01/09 13:04:23;;;;;;;5.70;2.78;;;;;;;-4.42;100.00;100615.28;10290432;28;20054;-73
2024/01/09 13:09:24;;;;;;;6.72;2.97;;;;;;;-4.52;100.00;100626.94;10280571;28;20043;-73
2024/01/09 13:14:27;;;;;;;5.38;2.67;;;;;;;-4.64;100.00;100648.19;10281114;28;20055;-72
2024/01/09 13:19:27;;;;;;;5.05;2.22;;;;;;;-4.82;100.00;100640.28;10285892;28;20039;-73
2024/01/09 13:24:29;;;;;;;7.32;3.25;;;;;;;-4.85;100.00;100639.56;10275925;28;20129;-72
2024/01/09 13:29:30;;;;;;;6.60;2.72;;;;;;;-5.01;100.00;100662.66;10278708;28;20465;-73
2024/01/09 13:34:31;;;;;;;16.38;3.58;;;;;;;-4.91;100.00;100686.44;10279475;28;20051;-72
2024/01/09 13:39:31;;;;;;;3.92;2.10;;;;;;;-4.88;100.00;100712.22;10274795;28;20042;-75
2024/01/09 13:44:32;;;;;;;6.83;2.23;;;;;;;-5.01;100.00;100704.09;10273902;28;20081;-73
2024/01/09 13:49:33;;;;;;;8.98;2.05;;;;;;;-5.05;100.00;100725.88;10273367;28;20035;-74
2024/01/09 13:54:34;;;;;;;8.68;2.63;;;;;;;-5.01;100.00;100737.78;10276256;28;20499;-71
2024/01/09 13:59:35;;;;;;;5.38;2.33;;;;;;;-5.07;100.00;100744.03;10276094;28;20114;-70
2024/01/09 14:04:35;;;;;;;6.78;2.65;;;;;;;-5.26;100.00;100737.88;10270993;28;20478;-72
2024/01/09 14:09:39;;;;;;;6.68;2.25;;;;;;;-5.36;100.00;100772.78;10293769;28;20080;-71
2024/01/09 14:14:40;;;;;;;9.57;2.53;;;;;;;-5.32;100.00;100795.94;10292414;28;20039;-74
2024/01/09 14:19:41;;;;;;;4.80;2.35;;;;;;;-5.16;100.00;100803.97;10293795;28;20039;-73
2024/01/09 14:24:42;;;;;;;5.47;2.45;;;;;;;-5.46;100.00;100782.63;10293959;28;20120;-74
2024/01/09 14:29:43;;;;;;;9.73;2.53;;;;;;;-5.46;100.00;100802.50;10285972;28;20185;-75
2024/01/09 14:34:44;;;;;;;6.75;2.83;;;;;;;-5.63;100.00;100821.22;10280995;28;20043;-72
2024/01/09 14:39:45;;;;;;;4.78;2.35;;;;;;;-5.66;100.00;100839.44;10286824;28;20045;-75
2024/01/09 14:44:46;;;;;;;8.73;2.65;;;;;;;-5.85;100.00;100827.13;10286541;28;20067;-75
2024/01/09 14:49:47;;;;;;;5.20;2.13;;;;;;;-6.14;100.00;100789.31;10287666;28;20078;-75
2024/01/09 14:54:48;;;;;;;5.57;2.67;;;;;;;-6.07;100.00;100800.31;10286558;28;20566;-75
2024/01/09 14:59:49;;;;;;;10.30;2.08;;;;;;;-5.63;100.00;100875.56;10286907;28;20125;-75
2024/01/09 15:04:49;;;;;;;7.18;2.72;;;;;;;-5.79;100.00;100857.97;10284985;28;20042;-75
2024/01/09 15:09:51;;;;;;;4.85;2.15;;;;;;;-5.80;100.00;100878.75;10286355;28;20077;-75
2024/01/09 15:14:51;;;;;;;4.95;2.28;;;;;;;-5.85;100.00;100909.91;10285105;28;20105;-74
2024/01/09 15:19:52;;;;;;;7.00;2.97;;;;;;;-6.02;100.00;100889.78;10282466;28;20055;-74
2024/01/09 15:24:53;;;;;;;7.95;2.35;;;;;;;-5.85;99.44;100911.66;10284099;28;20518;-74
2024/01/09 15:29:54;;;;;;;6.65;2.20;;;;;;;-5.84;99.08;100897.81;10264460;28;20051;-77
2024/01/09 15:34:55;;;;;;;4.63;2.00;;;;;;;-5.87;98.27;100909.13;10250050;29;20039;-75
2024/01/09 15:39:56;;;;;;;5.15;2.38;;;;;;;-6.01;98.32;100896.69;10256264;28;20101;-74
2024/01/09 15:44:57;;;;;;;4.30;1.77;;;;;;;-5.65;98.09;100952.41;10267837;28;20090;-70
2024/01/09 15:49:59;;;;;;;5.72;1.95;;;;;;;-5.53;97.75;100962.38;10260100;29;20082;-74
2024/01/09 15:55:00;;;;;;;4.65;2.10;;;;;;;-5.56;97.20;100959.91;10259917;28;20051;-82
2024/01/09 16:00:02;;;;;;;5.70;2.00;;;;;;;-5.81;96.84;100927.03;10262954;29;20125;-83
2024/01/09 16:05:03;;;;;;;11.18;2.08;;;;;;;-5.54;96.68;100979.63;10265336;29;20130;-74
2024/01/09 16:10:04;;;;;;;4.40;2.17;;;;;;;-5.59;96.79;100994.50;10263747;28;20054;-74
2024/01/09 16:15:05;;;;;;;6.38;2.13;;;;;;;-5.58;96.52;101006.53;10260918;29;20062;-83
2024/01/09 16:20:06;;;;;;;4.07;2.00;;;;;;;-5.97;97.01;100955.16;10264365;28;20075;-73
2024/01/09 16:25:09;;;;;;;4.95;2.10;;;;;;;-6.15;96.74;100916.13;10264625;28;20043;-81
2024/01/09 16:30:11;;;;;;;6.13;2.30;;;;;;;-5.57;97.16;101013.38;10258387;28;20056;-74
2024/01/09 16:35:12;;;;;;;6.50;2.80;;;;;;;-6.17;97.56;100977.38;10264819;28;20039;-81
2024/01/09 16:40:14;;;;;;;5.80;2.20;;;;;;;-6.11;97.21;101039.25;10263852;28;20480;-81
2024/01/09 16:45:15;;;;;;;6.90;2.65;;;;;;;-6.36;97.78;101062.38;10264299;28;20125;-83
2024/01/09 16:50:16;;;;;;;5.28;2.58;;;;;;;-6.48;97.00;101068.75;10259723;28;20535;-73
2024/01/09 16:55:17;;;;;;;7.15;3.08;;;;;;;-6.50;96.71;101086.88;10255099;29;20404;-77
2024/01/09 17:00:18;;;;;;;6.10;2.72;;;;;;;-6.54;96.48;101092.19;10256219;29;20439;-89
2024/01/09 17:05:20;;;;;;;8.45;2.55;;;;;;;-6.59;96.49;101094.88;10256914;28;20051;-70
2024/01/09 17:10:21;;;;;;;6.47;2.65;;;;;;;-6.96;96.32;101051.06;10249283;28;20507;-75
2024/01/09 17:15:25;;;;;;;3.63;1.98;;;;;;;-7.16;96.34;101028.34;10236880;29;20043;-75
2024/01/09 17:20:26;;;;;;;6.22;2.42;;;;;;;-6.96;96.41;101071.75;10236370;28;20122;-78
2024/01/09 17:25:27;;;;;;;5.30;2.25;;;;;;;-7.13;96.23;101064.41;10233256;29;20047;-74
2024/01/09 17:30:28;;;;;;;4.15;2.30;;;;;;;-6.98;95.73;101122.56;10235111;29;20446;-75
2024/01/09 17:35:28;;;;;;;5.20;2.20;;;;;;;-7.46;95.87;101072.06;10247120;28;20051;-76
2024/01/09 17:40:29;;;;;;;6.22;1.90;;;;;;;-7.22;95.86;101147.25;10220730;29;20065;-74
2024/01/09 17:45:31;;;;;;;6.22;2.63;;;;;;;-7.36;96.18;101148.41;10216253;29;20120;-76
2024/01/09 17:50:32;;;;;;;5.07;2.30;;;;;;;-7.48;96.45;101166.72;10215697;29;20048;-76
2024/01/09 17:55:35;;;;;;;5.85;2.63;;;;;;;-7.59;96.47;101159.25;10214995;29;20039;-74
2024/01/09 18:00:36;;;;;;;5.40;2.17;;;;;;;-7.84;96.62;101127.97;10213867;29;20048;-75
2024/01/09 18:05:37;;;;;;;3.40;1.70;;;;;;;-7.58;96.23;101179.00;10243672;29;20101;-74
2024/01/09 18:10:39;;;;;;;4.63;2.55;;;;;;;-7.88;96.46;101131.47;10235586;28;20384;-74
2024/01/09 18:15:40;;;;;;;4.47;2.00;;;;;;;-8.00;95.84;101131.72;10214101;29;20043;-76
2024/01/09 18:20:41;;;;;;;5.20;2.40;;;;;;;-7.63;95.54;101203.19;10213794;29;20058;-75
2024/01/09 18:25:42;;;;;;;4.50;2.10;;;;;;;-7.75;95.27;101175.91;10213895;29;20075;-75
2024/01/09 18:30:43;;;;;;;6.95;2.10;;;;;;;-7.62;94.91;101202.31;10250148;29;20043;-75
2024/01/09 18:35:43;;;;;;;3.20;1.60;;;;;;;-7.63;95.00;101205.75;10250665;29;20043;-75
2024/01/09 18:40:44;;;;;;;7.05;3.25;;;;;;;-7.63;95.29;101227.28;10251504;29;20070;-74
2024/01/09 18:45:45;;;;;;;11.02;4.78;;;;;;;-7.67;95.36;101248.00;10251583;29;20051;-74
2024/01/09 18:50:46;;;;;;;5.55;2.80;;;;;;;-7.67;95.63;101276.38;10251918;28;20043;-74
2024/01/09 18:55:47;;;;;;;6.70;3.00;;;;;;;-7.76;95.62;101286.88;10252599;28;20043;-74
2024/01/09 19:00:48;;;;;;;3.83;1.98;;;;;;;-7.79;96.08;101298.09;10252218;28;20487;-75
2024/01/09 19:05:48;;;;;;;4.85;2.20;;;;;;;-7.78;95.66;101286.88;10247991;28;20071;-74
2024/01/09 19:10:51;;;;;;;5.25;2.50;;;;;;;-7.79;96.15;101284.34;10252709;29;20058;-75
2024/01/09 19:15:51;;;;;;;4.30;2.22;;;;;;;-7.84;95.95;101284.41;10250946;28;20039;-75
2024/01/09 19:20:52;;;;;;;3.97;1.80;;;;;;;-7.87;96.00;101280.16;10251268;29;20531;-74
2024/01/09 19:25:56;;;;;;;3.80;1.48;;;;;;;-7.81;95.83;101305.00;10251312;29;20562;-73
2024/01/09 19:30:59;;;;;;;4.57;2.03;;;;;;;-8.12;95.78;101253.97;10252651;29;20171;-73
2024/01/09 19:36:00;;;;;;;;;;;;;;;-7.65;95.16;101313.34;10251802;28;20143;-73
2024/01/09 19:41:01;;;;;;;3.03;1.60;;;;;;;-7.75;95.38;101310.03;10251376;28;20013;-74
2024/01/09 19:46:04;;;;;;;3.25;1.58;;;;;;;-7.84;94.58;101315.38;10251042;29;20062;-73
2024/01/09 19:51:06;;;;;;;4.30;1.75;;;;;;;-8.25;94.57;101255.09;10251310;29;20511;-73
2024/01/09 19:56:06;;;;;;;2.95;1.50;;;;;;;-8.14;94.80;101291.81;10251842;29;20055;-74
2024/01/09 20:01:07;;;;;;;4.32;2.00;;;;;;;-8.26;95.26;101289.44;10251265;29;20123;-74
2024/01/09 20:06:18;;;;;;;6.45;1.85;;;;;;;-8.20;94.86;101309.13;10251557;28;20043;-73
2024/01/09 20:11:28;;;;;;;3.58;1.60;;;;;;;-8.17;94.75;101319.38;10249760;29;20528;-73
2024/01/09 20:16:29;;;;;;;4.63;1.95;;;;;;;-8.31;94.68;101299.00;10251102;28;20045;-73
2024/01/09 20:21:36;;;;;;;5.53;1.90;;;;;;;-8.14;94.88;101325.34;10251186;29;20043;-72
2024/01/09 20:26:37;;;;;;;5.03;2.10;;;;;;;-8.86;94.27;101226.03;10254053;28;20047;-72
2024/01/09 20:31:39;;;;;;;3.58;1.58;;;;;;;-8.40;95.22;101302.63;10257518;29;20043;-72
2024/01/09 20:36:43;;;;;;;4.43;1.95;;;;;;;-8.47;95.29;101298.41;10257818;29;20071;-72
2024/01/09 20:41:44;;;;;;;4.55;2.03;;;;;;;-8.57;94.71;101294.28;10257471;29;20055;-72
2024/01/09 20:46:44;;;;;;;5.18;2.03;;;;;;;-8.80;94.93;101256.00;10258277;28;20472;-72
2024/01/09 20:51:45;;;;;;;4.43;2.17;;;;;;;-8.41;95.15;101305.19;10256340;29;20043;-72
2024/01/09 20:56:46;;;;;;;5.03;1.90;;;;;;;-8.37;95.20;101312.84;10257326;28;20515;-72
2024/01/09 21:01:47;;;;;;;3.78;1.70;;;;;;;-8.43;94.75;101297.50;10256513;29;20098;-72
2024/01/09 21:06:48;;;;;;;4.10;2.28;;;;;;;-8.68;94.55;101278.13;10256786;29;20196;-72
2024/01/09 21:11:49;;;;;;;5.82;1.85;;;;;;;-8.74;94.37;101290.22;10255840;29;20039;-72
2024/01/09 21:16:50;;;;;;;4.32;1.70;;;;;;;-8.71;94.51;101297.06;10257071;28;20070;-72
2024/01/09 21:21:50;;;;;;;3.55;1.58;;;;;;;-8.92;93.57;101280.19;10256540;29;20404;-72
2024/01/09 21:26:51;;;;;;;3.95;1.67;;;;;;;-9.08;93.42;101258.13;10255615;29;20139;-72
2024/01/09 21:31:54;;;;;;;5.38;2.05;;;;;;;-8.90;94.12;101286.19;10255708;28;20511;-72
2024/01/09 21:36:55;;;;;;;3.22;1.90;;;;;;;-8.83;94.91;101276.66;10254247;28;20047;-72
2024/01/09 21:41:56;;;;;;;6.32;2.22;;;;;;;-8.82;94.46;101258.63;10255252;28;20154;-72
2024/01/09 21:46:56;;;;;;;12.00;2.55;;;;;;;-8.77;94.63;101261.94;10254892;29;20574;-72
2024/01/09 21:51:57;;;;;;;4.90;1.58;;;;;;;-8.88;94.48;101266.44;10254933;28;20094;-72
2024/01/09 21:56:58;;;;;;;3.88;1.98;;;;;;;-8.95;94.76;101277.66;10255027;29;20404;-72
2024/01/09 22:02:01;;;;;;;4.15;1.88;;;;;;;-9.19;94.39;101248.81;10254358;29;20043;-72
2024/01/09 22:07:02;;;;;;;4.43;1.70;;;;;;;-9.10;94.40;101257.28;10254083;29;20047;-72
2024/01/09 22:12:09;;;;;;;6.45;2.20;;;;;;;-9.53;94.16;101199.53;10253969;29;20047;-71
2024/01/09 22:17:10;;;;;;;5.28;1.95;;;;;;;-9.21;94.38;101244.59;10255351;29;20035;-72
2024/01/09 22:22:10;;;;;;;8.27;2.35;;;;;;;-9.47;94.13;101184.03;10253999;29;20122;-71
2024/01/09 22:27:11;;;;;;;6.55;1.90;;;;;;;-9.58;94.35;101191.03;10253092;29;20054;-72
2024/01/09 22:32:12;;;;;;;4.35;2.33;;;;;;;-9.61;94.12;101196.22;10253266;29;20122;-72
2024/01/09 22:37:13;;;;;;;4.75;2.03;;;;;;;-9.30;94.37;101235.25;10253882;29;20090;-72
2024/01/09 22:42:15;;;;;;;3.65;2.00;;;;;;;-9.27;94.44;101244.63;10252846;29;20460;-72
2024/01/09 22:47:16;;;;;;;5.05;2.22;;;;;;;-9.49;93.15;101242.34;10251884;28;20094;-72
2024/01/09 22:52:17;;;;;;;6.60;2.17;;;;;;;-9.98;93.16;101211.25;10253194;29;20071;-71
2024/01/09 22:57:17;;;;;;;7.28;2.13;;;;;;;-9.83;93.96;101218.78;10252337;29;20046;-72
2024/01/09 23:02:19;;;;;;;5.03;2.13;;;;;;;-9.51;93.65;101261.25;10253095;29;20042;-72